This is the latest recevied weather packets stored in our database for station/object K3FEF-13. If no packets are shown the sender has not sent any weather packets the latest 10 day(s).
| Time | Temp. | Humidity | Pressure | Rain* | Wind** | Luminosity | Snow |
|---|---|---|---|---|---|---|---|
| 1777236916 | 15° C | 46% | 1021.7 hPa | 0 mm | - | - | - |
| 1777236316 | 15° C | 50% | 1021.7 hPa | 0 mm | - | - | - |
| 1777233336 | 15° C | 50% | 1021.8 hPa | 0 mm | - | - | - |
| 1777231516 | 14.44° C | 53% | 1021.9 hPa | 0 mm | - | - | - |
| 1777224936 | 13.33° C | 59% | 1022.4 hPa | 0 mm | - | - | - |
| 1777220716 | 12.78° C | 67% | 1022.7 hPa | 0 mm | - | - | - |
| 1777219536 | 11.67° C | 67% | 1022.8 hPa | 0 mm | - | - | - |
| 1777215936 | 10° C | 76% | 1022.5 hPa | 0 mm | - | - | - |
| 1777214717 | 8.89° C | 79% | 1022.5 hPa | 0 mm | - | - | - |
| 1777212917 | 7.78° C | 83% | 1022.1 hPa | 0 mm | - | - | - |
| 1777209937 | 6.11° C | 92% | 1021.9 hPa | 0 mm | - | - | - |
| 1777209317 | 5.56° C | 93% | 1021.9 hPa | 0 mm | - | - | - |
| 1777207557 | 5° C | 95% | 1021.9 hPa | 0 mm | - | - | - |
| 1777205737 | 4.44° C | 96% | 1021.7 hPa | 0 mm | - | - | - |
| 1777202717 | 3.89° C | 96% | 1020.8 hPa | 0 mm | - | - | - |
| 1777202137 | 3.33° C | 96% | 1020.7 hPa | 0 mm | - | - | - |
| 1777201517 | 3.33° C | 96% | 1020.5 hPa | 0 mm | - | - | - |
| 1777200317 | 3.33° C | 96% | 1020.1 hPa | 0 mm | - | - | - |
| 1777199717 | 3.33° C | 96% | 1020 hPa | 0 mm | - | - | - |
| 1777195517 | 3.33° C | 96% | 1019.3 hPa | 0 mm | - | - | - |
| 1777190117 | 2.78° C | 96% | 1018.9 hPa | 0 mm | - | - | - |
| 1777188937 | 2.78° C | 96% | 1018.6 hPa | 0 mm | - | - | - |
| 1777188316 | 2.78° C | 96% | 1018.7 hPa | 0 mm | - | - | - |
| 1777184716 | 2.78° C | 96% | 1019.1 hPa | 0.25 mm | - | - | - |
| 1777175117 | 2.78° C | 95% | 1019.4 hPa | 1.02 mm | - | - | - |
* Rain latest hour (hover to see other rain measurements)
** Current wind speed in m/s (hover to see current wind gust speed)